sensor_id;sensor_type;location;lat;lon;timestamp;pressure;altitude;pressure_sealevel;temperature
67515;BMP280;60646;55.802;37.032;2023-12-04T00:02:14;98515.94;;;-0.01
67515;BMP280;60646;55.802;37.032;2023-12-04T00:04:40;98525.19;;;0.13
67515;BMP280;60646;55.802;37.032;2023-12-04T00:07:06;98498.25;;;-0.09
67515;BMP280;60646;55.802;37.032;2023-12-04T00:09:32;98517.28;;;0.04
67515;BMP280;60646;55.802;37.032;2023-12-04T00:11:58;98514.59;;;-0.05
67515;BMP280;60646;55.802;37.032;2023-12-04T00:14:23;98534.78;;;0.07
67515;BMP280;60646;55.802;37.032;2023-12-04T00:16:49;98519.72;;;-0.02
67515;BMP280;60646;55.802;37.032;2023-12-04T00:19:15;98534.59;;;0.02
67515;BMP280;60646;55.802;37.032;2023-12-04T00:21:41;98549.78;;;0.07
67515;BMP280;60646;55.802;37.032;2023-12-04T00:24:07;98545.09;;;0.02
67515;BMP280;60646;55.802;37.032;2023-12-04T00:26:32;98555.44;;;0.05
67515;BMP280;60646;55.802;37.032;2023-12-04T00:28:58;98560.22;;;-0.03
67515;BMP280;60646;55.802;37.032;2023-12-04T00:31:24;98549.13;;;-0.07
67515;BMP280;60646;55.802;37.032;2023-12-04T00:33:50;98553.38;;;-0.09
67515;BMP280;60646;55.802;37.032;2023-12-04T00:36:16;98595.44;;;0.09
67515;BMP280;60646;55.802;37.032;2023-12-04T00:38:41;98598.50;;;0.08
67515;BMP280;60646;55.802;37.032;2023-12-04T00:41:07;98596.28;;;0.06
67515;BMP280;60646;55.802;37.032;2023-12-04T00:43:33;98576.97;;;-0.09
67515;BMP280;60646;55.802;37.032;2023-12-04T00:45:59;98580.75;;;-0.10
67515;BMP280;60646;55.802;37.032;2023-12-04T00:48:24;98600.34;;;-0.02
67515;BMP280;60646;55.802;37.032;2023-12-04T00:50:51;98610.28;;;0.03
67515;BMP280;60646;55.802;37.032;2023-12-04T00:53:17;98574.53;;;-0.25
67515;BMP280;60646;55.802;37.032;2023-12-04T00:55:43;98595.03;;;-0.11
67515;BMP280;60646;55.802;37.032;2023-12-04T00:58:08;98583.88;;;-0.24
67515;BMP280;60646;55.802;37.032;2023-12-04T01:00:34;98595.56;;;-0.16
67515;BMP280;60646;55.802;37.032;2023-12-04T01:03:00;98594.22;;;-0.21
67515;BMP280;60646;55.802;37.032;2023-12-04T01:05:26;98591.41;;;-0.26
67515;BMP280;60646;55.802;37.032;2023-12-04T01:08:10;98606.00;;;-0.25
67515;BMP280;60646;55.802;37.032;2023-12-04T01:10:36;98599.28;;;-0.26
67515;BMP280;60646;55.802;37.032;2023-12-04T01:13:01;98577.72;;;-0.43
67515;BMP280;60646;55.802;37.032;2023-12-04T01:15:27;98603.19;;;-0.31
67515;BMP280;60646;55.802;37.032;2023-12-04T01:17:53;98606.66;;;-0.34
67515;BMP280;60646;55.802;37.032;2023-12-04T01:20:19;98601.94;;;-0.39
67515;BMP280;60646;55.802;37.032;2023-12-04T01:22:45;98595.16;;;-0.49
67515;BMP280;60646;55.802;37.032;2023-12-04T01:25:10;98629.41;;;-0.31
67515;BMP280;60646;55.802;37.032;2023-12-04T01:27:36;98622.19;;;-0.39
67515;BMP280;60646;55.802;37.032;2023-12-04T01:30:05;98604.00;;;-0.56
67515;BMP280;60646;55.802;37.032;2023-12-04T01:32:31;98614.78;;;-0.54
67515;BMP280;60646;55.802;37.032;2023-12-04T01:34:57;98613.03;;;-0.57
67515;BMP280;60646;55.802;37.032;2023-12-04T01:37:22;98621.22;;;-0.55
67515;BMP280;60646;55.802;37.032;2023-12-04T01:39:48;98605.63;;;-0.71
67515;BMP280;60646;55.802;37.032;2023-12-04T01:42:14;98605.00;;;-0.75
67515;BMP280;60646;55.802;37.032;2023-12-04T01:44:40;98637.56;;;-0.51
67515;BMP280;60646;55.802;37.032;2023-12-04T01:47:06;98630.16;;;-0.65
67515;BMP280;60646;55.802;37.032;2023-12-04T01:49:32;98641.97;;;-0.60
67515;BMP280;60646;55.802;37.032;2023-12-04T01:51:58;98636.66;;;-0.69
67515;BMP280;60646;55.802;37.032;2023-12-04T01:54:25;98628.28;;;-0.77
67515;BMP280;60646;55.802;37.032;2023-12-04T01:56:51;98620.22;;;-0.82
67515;BMP280;60646;55.802;37.032;2023-12-04T01:59:17;98628.50;;;-0.84
67515;BMP280;60646;55.802;37.032;2023-12-04T02:01:42;98628.75;;;-0.91
67515;BMP280;60646;55.802;37.032;2023-12-04T02:04:09;98651.25;;;-0.81
67515;BMP280;60646;55.802;37.032;2023-12-04T02:06:35;98640.38;;;-0.92
67515;BMP280;60646;55.802;37.032;2023-12-04T02:09:01;98650.22;;;-0.83
67515;BMP280;60646;55.802;37.032;2023-12-04T02:11:27;98631.34;;;-1.04
67515;BMP280;60646;55.802;37.032;2023-12-04T02:13:53;98631.06;;;-1.06
67515;BMP280;60646;55.802;37.032;2023-12-04T02:16:19;98639.94;;;-1.03
67515;BMP280;60646;55.802;37.032;2023-12-04T02:18:48;98652.13;;;-0.97
67515;BMP280;60646;55.802;37.032;2023-12-04T02:21:13;98635.13;;;-1.17
67515;BMP280;60646;55.802;37.032;2023-12-04T02:23:39;98618.19;;;-1.25
67515;BMP280;60646;55.802;37.032;2023-12-04T02:26:10;98661.22;;;-1.01
67515;BMP280;60646;55.802;37.032;2023-12-04T02:28:37;98647.50;;;-1.18
67515;BMP280;60646;55.802;37.032;2023-12-04T02:31:05;98645.72;;;-1.21
67515;BMP280;60646;55.802;37.032;2023-12-04T02:33:33;98628.22;;;-1.37
67515;BMP280;60646;55.802;37.032;2023-12-04T02:36:00;98638.50;;;-1.29
67515;BMP280;60646;55.802;37.032;2023-12-04T02:38:28;98586.63;;;-1.60
67515;BMP280;60646;55.802;37.032;2023-12-04T02:40:55;98644.25;;;-1.22
67515;BMP280;60646;55.802;37.032;2023-12-04T02:43:21;98634.41;;;-1.30
67515;BMP280;60646;55.802;37.032;2023-12-04T02:45:46;98629.66;;;-1.36
67515;BMP280;60646;55.802;37.032;2023-12-04T02:48:12;98649.72;;;-1.29
67515;BMP280;60646;55.802;37.032;2023-12-04T02:50:38;98685.84;;;-1.11
67515;BMP280;60646;55.802;37.032;2023-12-04T02:53:04;98655.97;;;-1.39
67515;BMP280;60646;55.802;37.032;2023-12-04T02:55:29;98678.81;;;-1.27
67515;BMP280;60646;55.802;37.032;2023-12-04T02:57:55;98677.88;;;-1.33
67515;BMP280;60646;55.802;37.032;2023-12-04T03:00:21;98710.47;;;-1.21
67515;BMP280;60646;55.802;37.032;2023-12-04T03:02:47;98706.81;;;-1.24
67515;BMP280;60646;55.802;37.032;2023-12-04T03:05:13;98691.06;;;-1.37
67515;BMP280;60646;55.802;37.032;2023-12-04T03:07:38;98714.56;;;-1.20
67515;BMP280;60646;55.802;37.032;2023-12-04T03:10:05;98708.69;;;-1.24
67515;BMP280;60646;55.802;37.032;2023-12-04T03:12:31;98730.91;;;-1.16
67515;BMP280;60646;55.802;37.032;2023-12-04T03:14:57;98734.66;;;-1.17
67515;BMP280;60646;55.802;37.032;2023-12-04T03:17:23;98751.00;;;-1.13
67515;BMP280;60646;55.802;37.032;2023-12-04T03:19:48;98728.91;;;-1.25
67515;BMP280;60646;55.802;37.032;2023-12-04T03:22:15;98780.91;;;-0.98
67515;BMP280;60646;55.802;37.032;2023-12-04T03:24:41;98749.63;;;-1.18
67515;BMP280;60646;55.802;37.032;2023-12-04T03:27:07;98765.91;;;-1.10
67515;BMP280;60646;55.802;37.032;2023-12-04T03:29:33;98768.19;;;-1.12
67515;BMP280;60646;55.802;37.032;2023-12-04T03:31:58;98773.13;;;-1.14
67515;BMP280;60646;55.802;37.032;2023-12-04T03:34:24;98789.28;;;-1.03
67515;BMP280;60646;55.802;37.032;2023-12-04T03:36:50;98811.09;;;-0.94
67515;BMP280;60646;55.802;37.032;2023-12-04T03:39:16;98815.09;;;-0.89
67515;BMP280;60646;55.802;37.032;2023-12-04T03:41:41;98822.94;;;-0.89
67515;BMP280;60646;55.802;37.032;2023-12-04T03:44:07;98820.22;;;-0.98
67515;BMP280;60646;55.802;37.032;2023-12-04T03:46:33;98802.16;;;-1.09
67515;BMP280;60646;55.802;37.032;2023-12-04T03:48:59;98802.59;;;-1.10
67515;BMP280;60646;55.802;37.032;2023-12-04T03:51:25;98801.31;;;-1.18
67515;BMP280;60646;55.802;37.032;2023-12-04T03:53:50;98805.88;;;-1.22
67515;BMP280;60646;55.802;37.032;2023-12-04T03:56:16;98814.94;;;-1.11
67515;BMP280;60646;55.802;37.032;2023-12-04T03:58:42;98840.88;;;-1.00
67515;BMP280;60646;55.802;37.032;2023-12-04T04:01:09;98818.47;;;-1.17
67515;BMP280;60646;55.802;37.032;2023-12-04T04:03:34;98831.06;;;-1.12
67515;BMP280;60646;55.802;37.032;2023-12-04T04:06:00;98868.63;;;-0.90
67515;BMP280;60646;55.802;37.032;2023-12-04T04:08:26;98828.22;;;-1.18
67515;BMP280;60646;55.802;37.032;2023-12-04T04:10:52;98849.53;;;-1.03
67515;BMP280;60646;55.802;37.032;2023-12-04T04:13:19;98857.53;;;-0.94
67515;BMP280;60646;55.802;37.032;2023-12-04T04:15:45;98848.16;;;-1.08
67515;BMP280;60646;55.802;37.032;2023-12-04T04:18:11;98869.47;;;-0.93
67515;BMP280;60646;55.802;37.032;2023-12-04T04:20:37;98870.31;;;-0.96
67515;BMP280;60646;55.802;37.032;2023-12-04T04:23:03;98864.44;;;-1.00
67515;BMP280;60646;55.802;37.032;2023-12-04T04:25:29;98876.72;;;-0.97
67515;BMP280;60646;55.802;37.032;2023-12-04T04:27:55;98861.50;;;-1.02
67515;BMP280;60646;55.802;37.032;2023-12-04T04:30:20;98874.09;;;-0.97
67515;BMP280;60646;55.802;37.032;2023-12-04T04:32:46;98883.72;;;-0.94
67515;BMP280;60646;55.802;37.032;2023-12-04T04:35:15;98903.28;;;-0.82
67515;BMP280;60646;55.802;37.032;2023-12-04T04:37:41;98875.09;;;-1.07
67515;BMP280;60646;55.802;37.032;2023-12-04T04:40:07;98882.13;;;-1.04
67515;BMP280;60646;55.802;37.032;2023-12-04T04:42:36;98884.75;;;-1.04
67515;BMP280;60646;55.802;37.032;2023-12-04T04:45:02;98906.16;;;-0.93
67515;BMP280;60646;55.802;37.032;2023-12-04T04:47:30;98902.91;;;-0.97
67515;BMP280;60646;55.802;37.032;2023-12-04T04:49:56;98915.00;;;-0.87
67515;BMP280;60646;55.802;37.032;2023-12-04T04:52:22;98909.94;;;-0.94
67515;BMP280;60646;55.802;37.032;2023-12-04T04:54:48;98907.81;;;-0.99
67515;BMP280;60646;55.802;37.032;2023-12-04T04:57:14;98896.88;;;-1.10
67515;BMP280;60646;55.802;37.032;2023-12-04T04:59:40;98919.03;;;-0.99
67515;BMP280;60646;55.802;37.032;2023-12-04T05:02:05;98901.78;;;-1.12
67515;BMP280;60646;55.802;37.032;2023-12-04T05:04:31;98908.19;;;-1.13
67515;BMP280;60646;55.802;37.032;2023-12-04T05:06:57;98914.72;;;-1.05
67515;BMP280;60646;55.802;37.032;2023-12-04T05:09:23;98920.19;;;-1.00
67515;BMP280;60646;55.802;37.032;2023-12-04T05:12:18;98950.44;;;-0.82
67515;BMP280;60646;55.802;37.032;2023-12-04T05:14:44;98925.22;;;-1.05
67515;BMP280;60646;55.802;37.032;2023-12-04T05:17:09;98942.13;;;-0.94
67515;BMP280;60646;55.802;37.032;2023-12-04T05:19:35;98928.31;;;-1.10
67515;BMP280;60646;55.802;37.032;2023-12-04T05:22:01;98923.25;;;-1.17
67515;BMP280;60646;55.802;37.032;2023-12-04T05:24:27;98924.31;;;-1.15
67515;BMP280;60646;55.802;37.032;2023-12-04T05:26:53;98955.72;;;-0.99
67515;BMP280;60646;55.802;37.032;2023-12-04T05:29:19;98944.69;;;-1.06
67515;BMP280;60646;55.802;37.032;2023-12-04T05:31:46;98974.94;;;-0.89
67515;BMP280;60646;55.802;37.032;2023-12-04T05:34:12;98979.44;;;-0.90
67515;BMP280;60646;55.802;37.032;2023-12-04T05:36:38;98966.94;;;-0.98
67515;BMP280;60646;55.802;37.032;2023-12-04T05:39:04;98937.34;;;-1.11
67515;BMP280;60646;55.802;37.032;2023-12-04T05:41:30;98937.53;;;-1.18
67515;BMP280;60646;55.802;37.032;2023-12-04T05:43:56;98953.38;;;-1.09
67515;BMP280;60646;55.802;37.032;2023-12-04T05:46:22;98973.41;;;-1.03
67515;BMP280;60646;55.802;37.032;2023-12-04T05:48:49;98958.94;;;-1.07
67515;BMP280;60646;55.802;37.032;2023-12-04T05:51:14;98960.91;;;-1.11
67515;BMP280;60646;55.802;37.032;2023-12-04T05:53:41;98970.34;;;-1.14
67515;BMP280;60646;55.802;37.032;2023-12-04T05:56:07;98980.06;;;-1.14
67515;BMP280;60646;55.802;37.032;2023-12-04T05:58:35;98999.22;;;-1.01
67515;BMP280;60646;55.802;37.032;2023-12-04T06:01:04;98978.25;;;-1.17
67515;BMP280;60646;55.802;37.032;2023-12-04T06:03:29;99009.03;;;-1.05
67515;BMP280;60646;55.802;37.032;2023-12-04T06:05:55;98994.63;;;-1.13
67515;BMP280;60646;55.802;37.032;2023-12-04T06:08:21;98986.56;;;-1.19
67515;BMP280;60646;55.802;37.032;2023-12-04T06:11:14;99033.91;;;-0.97
67515;BMP280;60646;55.802;37.032;2023-12-04T06:13:40;99033.53;;;-0.96
67515;BMP280;60646;55.802;37.032;2023-12-04T06:16:06;99029.19;;;-1.02
67515;BMP280;60646;55.802;37.032;2023-12-04T06:18:32;98993.50;;;-1.28
67515;BMP280;60646;55.802;37.032;2023-12-04T06:20:57;99001.28;;;-1.25
67515;BMP280;60646;55.802;37.032;2023-12-04T06:23:23;99020.75;;;-1.10
67515;BMP280;60646;55.802;37.032;2023-12-04T06:25:49;99024.53;;;-1.11
67515;BMP280;60646;55.802;37.032;2023-12-04T06:28:16;99027.88;;;-1.10
67515;BMP280;60646;55.802;37.032;2023-12-04T06:30:42;99032.28;;;-1.07
67515;BMP280;60646;55.802;37.032;2023-12-04T06:33:08;99034.59;;;-1.09
67515;BMP280;60646;55.802;37.032;2023-12-04T06:35:34;99031.00;;;-1.15
67515;BMP280;60646;55.802;37.032;2023-12-04T06:38:06;99029.84;;;-1.14
67515;BMP280;60646;55.802;37.032;2023-12-04T06:40:33;99055.38;;;-1.02
67515;BMP280;60646;55.802;37.032;2023-12-04T06:42:59;99055.38;;;-1.02
67515;BMP280;60646;55.802;37.032;2023-12-04T06:45:25;99080.41;;;-0.85
67515;BMP280;60646;55.802;37.032;2023-12-04T06:47:53;99059.03;;;-1.00
67515;BMP280;60646;55.802;37.032;2023-12-04T06:50:19;99061.59;;;-0.96
67515;BMP280;60646;55.802;37.032;2023-12-04T06:52:45;99065.38;;;-0.97
67515;BMP280;60646;55.802;37.032;2023-12-04T06:55:12;99083.28;;;-0.79
67515;BMP280;60646;55.802;37.032;2023-12-04T06:57:38;99060.13;;;-0.97
67515;BMP280;60646;55.802;37.032;2023-12-04T07:00:05;99066.41;;;-0.95
67515;BMP280;60646;55.802;37.032;2023-12-04T07:02:38;99090.09;;;-0.82
67515;BMP280;60646;55.802;37.032;2023-12-04T07:05:04;99084.19;;;-0.86
67515;BMP280;60646;55.802;37.032;2023-12-04T07:07:30;99088.38;;;-0.89
67515;BMP280;60646;55.802;37.032;2023-12-04T07:09:56;99111.63;;;-0.74
67515;BMP280;60646;55.802;37.032;2023-12-04T07:12:22;99099.91;;;-0.86
67515;BMP280;60646;55.802;37.032;2023-12-04T07:15:13;99127.25;;;-0.71
67515;BMP280;60646;55.802;37.032;2023-12-04T07:17:39;99103.69;;;-0.87
67515;BMP280;60646;55.802;37.032;2023-12-04T07:20:06;99125.47;;;-0.74
67515;BMP280;60646;55.802;37.032;2023-12-04T07:22:32;99094.84;;;-0.93
67515;BMP280;60646;55.802;37.032;2023-12-04T07:24:59;99111.38;;;-0.80
67515;BMP280;60646;55.802;37.032;2023-12-04T07:27:25;99133.59;;;-0.68
67515;BMP280;60646;55.802;37.032;2023-12-04T07:29:51;99109.69;;;-0.86
67515;BMP280;60646;55.802;37.032;2023-12-04T07:32:17;99115.56;;;-0.82
67515;BMP280;60646;55.802;37.032;2023-12-04T07:34:45;99107.47;;;-0.88
67515;BMP280;60646;55.802;37.032;2023-12-04T07:37:11;99105.16;;;-0.86
67515;BMP280;60646;55.802;37.032;2023-12-04T07:39:37;99125.13;;;-0.76
67515;BMP280;60646;55.802;37.032;2023-12-04T07:42:03;99133.97;;;-0.70
67515;BMP280;60646;55.802;37.032;2023-12-04T07:44:36;99147.16;;;-0.57
67515;BMP280;60646;55.802;37.032;2023-12-04T07:47:05;99160.84;;;-0.50
67515;BMP280;60646;55.802;37.032;2023-12-04T07:49:31;99149.03;;;-0.58
67515;BMP280;60646;55.802;37.032;2023-12-04T07:51:56;99161.34;;;-0.55
67515;BMP280;60646;55.802;37.032;2023-12-04T07:54:24;99149.53;;;-0.63
67515;BMP280;60646;55.802;37.032;2023-12-04T07:56:51;99185.13;;;-0.46
67515;BMP280;60646;55.802;37.032;2023-12-04T07:59:18;99145.88;;;-0.65
67515;BMP280;60646;55.802;37.032;2023-12-04T08:01:45;99145.22;;;-0.69
67515;BMP280;60646;55.802;37.032;2023-12-04T08:04:17;99165.13;;;-0.56
67515;BMP280;60646;55.802;37.032;2023-12-04T08:06:43;99161.19;;;-0.64
67515;BMP280;60646;55.802;37.032;2023-12-04T08:09:09;99174.47;;;-0.55
67515;BMP280;60646;55.802;37.032;2023-12-04T08:11:36;99157.88;;;-0.68
67515;BMP280;60646;55.802;37.032;2023-12-04T08:14:03;99177.09;;;-0.55
67515;BMP280;60646;55.802;37.032;2023-12-04T08:16:29;99153.47;;;-0.71
67515;BMP280;60646;55.802;37.032;2023-12-04T08:18:55;99176.75;;;-0.57
67515;BMP280;60646;55.802;37.032;2023-12-04T08:21:21;99149.56;;;-0.79
67515;BMP280;60646;55.802;37.032;2023-12-04T08:23:47;99175.84;;;-0.66
67515;BMP280;60646;55.802;37.032;2023-12-04T08:26:13;99163.97;;;-0.71
67515;BMP280;60646;55.802;37.032;2023-12-04T08:28:40;99157.06;;;-0.81
67515;BMP280;60646;55.802;37.032;2023-12-04T08:31:08;99179.59;;;-0.67
67515;BMP280;60646;55.802;37.032;2023-12-04T08:33:34;99180.44;;;-0.70
67515;BMP280;60646;55.802;37.032;2023-12-04T08:36:00;99203.22;;;-0.51
67515;BMP280;60646;55.802;37.032;2023-12-04T08:38:26;99193.63;;;-0.58
67515;BMP280;60646;55.802;37.032;2023-12-04T08:40:53;99198.63;;;-0.47
67515;BMP280;60646;55.802;37.032;2023-12-04T08:43:18;99189.38;;;-0.52
67515;BMP280;60646;55.802;37.032;2023-12-04T08:45:47;99200.84;;;-0.46
67515;BMP280;60646;55.802;37.032;2023-12-04T08:48:13;99164.63;;;-0.67
67515;BMP280;60646;55.802;37.032;2023-12-04T08:50:39;99171.59;;;-0.60
67515;BMP280;60646;55.802;37.032;2023-12-04T08:53:05;99180.50;;;-0.58
67515;BMP280;60646;55.802;37.032;2023-12-04T08:55:31;99208.13;;;-0.37
67515;BMP280;60646;55.802;37.032;2023-12-04T08:57:57;99194.94;;;-0.50
67515;BMP280;60646;55.802;37.032;2023-12-04T09:00:23;99203.78;;;-0.44
67515;BMP280;60646;55.802;37.032;2023-12-04T09:02:49;99199.03;;;-0.49
67515;BMP280;60646;55.802;37.032;2023-12-04T09:05:14;99202.06;;;-0.50
67515;BMP280;60646;55.802;37.032;2023-12-04T09:07:40;99157.91;;;-0.84
67515;BMP280;60646;55.802;37.032;2023-12-04T09:10:06;99203.31;;;-0.55
67515;BMP280;60646;55.802;37.032;2023-12-04T09:12:32;99206.34;;;-0.56
67515;BMP280;60646;55.802;37.032;2023-12-04T09:15:01;99216.09;;;-0.57
67515;BMP280;60646;55.802;37.032;2023-12-04T09:17:31;99217.47;;;-0.52
67515;BMP280;60646;55.802;37.032;2023-12-04T09:19:58;99234.84;;;-0.42
67515;BMP280;60646;55.802;37.032;2023-12-04T09:22:24;99215.25;;;-0.54
67515;BMP280;60646;55.802;37.032;2023-12-04T09:24:50;99227.22;;;-0.53
67515;BMP280;60646;55.802;37.032;2023-12-04T09:27:16;99216.09;;;-0.57
67515;BMP280;60646;55.802;37.032;2023-12-04T09:29:42;99244.13;;;-0.37
67515;BMP280;60646;55.802;37.032;2023-12-04T09:32:09;99224.94;;;-0.51
67515;BMP280;60646;55.802;37.032;2023-12-04T09:34:36;99214.94;;;-0.56
67515;BMP280;60646;55.802;37.032;2023-12-04T09:37:01;99239.66;;;-0.40
67515;BMP280;60646;55.802;37.032;2023-12-04T09:39:28;99217.47;;;-0.52
67515;BMP280;60646;55.802;37.032;2023-12-04T09:41:55;99232.97;;;-0.41
67515;BMP280;60646;55.802;37.032;2023-12-04T09:44:23;99228.38;;;-0.37
67515;BMP280;60646;55.802;37.032;2023-12-04T09:46:51;99246.50;;;-0.27
67515;BMP280;60646;55.802;37.032;2023-12-04T09:49:17;99240.34;;;-0.36
67515;BMP280;60646;55.802;37.032;2023-12-04T09:51:44;99222.47;;;-0.41
67515;BMP280;60646;55.802;37.032;2023-12-04T09:54:11;99262.41;;;-0.18
67515;BMP280;60646;55.802;37.032;2023-12-04T09:56:37;99241.06;;;-0.36
67515;BMP280;60646;55.802;37.032;2023-12-04T09:59:05;99263.22;;;-0.21
67515;BMP280;60646;55.802;37.032;2023-12-04T10:01:31;99242.50;;;-0.31
67515;BMP280;60646;55.802;37.032;2023-12-04T10:03:58;99262.19;;;-0.23
67515;BMP280;60646;55.802;37.032;2023-12-04T10:06:28;99258.06;;;-0.24
67515;BMP280;60646;55.802;37.032;2023-12-04T10:08:55;99264.06;;;-0.24
67515;BMP280;60646;55.802;37.032;2023-12-04T10:11:25;99255.94;;;-0.29
67515;BMP280;60646;55.802;37.032;2023-12-04T10:13:53;99270.06;;;-0.23
67515;BMP280;60646;55.802;37.032;2023-12-04T10:16:34;99273.00;;;-0.21
67515;BMP280;60646;55.802;37.032;2023-12-04T10:19:21;99311.53;;;-0.02
67515;BMP280;60646;55.802;37.032;2023-12-04T10:21:50;99293.34;;;-0.09
67515;BMP280;60646;55.802;37.032;2023-12-04T10:27:00;99293.50;;;-0.16
67515;BMP280;60646;55.802;37.032;2023-12-04T10:29:28;99315.31;;;-0.03
67515;BMP280;60646;55.802;37.032;2023-12-04T10:31:54;99276.34;;;-0.37
67515;BMP280;60646;55.802;37.032;2023-12-04T10:34:21;99305.97;;;-0.20
67515;BMP280;60646;55.802;37.032;2023-12-04T10:36:52;99296.69;;;-0.25
67515;BMP280;60646;55.802;37.032;2023-12-04T10:39:18;99300.38;;;-0.22
67515;BMP280;60646;55.802;37.032;2023-12-04T10:41:44;99322.22;;;-0.09
67515;BMP280;60646;55.802;37.032;2023-12-04T10:44:16;99328.13;;;-0.05
67515;BMP280;60646;55.802;37.032;2023-12-04T10:46:44;99291.19;;;-0.30
67515;BMP280;60646;55.802;37.032;2023-12-04T10:49:11;99310.56;;;-0.24
67515;BMP280;60646;55.802;37.032;2023-12-04T10:51:38;99330.41;;;-0.07
67515;BMP280;60646;55.802;37.032;2023-12-04T10:54:04;99336.03;;;-0.09
67515;BMP280;60646;55.802;37.032;2023-12-04T10:56:36;99334.50;;;-0.06
67515;BMP280;60646;55.802;37.032;2023-12-04T10:59:08;99325.25;;;-0.11
67515;BMP280;60646;55.802;37.032;2023-12-04T11:01:36;99323.00;;;-0.12
67515;BMP280;60646;55.802;37.032;2023-12-04T11:04:04;99319.34;;;-0.15
67515;BMP280;60646;55.802;37.032;2023-12-04T11:06:34;99314.50;;;-0.16
67515;BMP280;60646;55.802;37.032;2023-12-04T11:09:03;99354.19;;;0.02
67515;BMP280;60646;55.802;37.032;2023-12-04T11:11:34;99348.94;;;0.02
67515;BMP280;60646;55.802;37.032;2023-12-04T11:14:02;99324.25;;;-0.17
67515;BMP280;60646;55.802;37.032;2023-12-04T11:19:00;99363.84;;;0.05
67515;BMP280;60646;55.802;37.032;2023-12-04T11:21:31;99324.66;;;-0.18
67515;BMP280;60646;55.802;37.032;2023-12-04T11:24:18;99366.81;;;0.07
67515;BMP280;60646;55.802;37.032;2023-12-04T11:26:44;99354.34;;;-0.05
67515;BMP280;60646;55.802;37.032;2023-12-04T11:29:12;99324.06;;;-0.26
67515;BMP280;60646;55.802;37.032;2023-12-04T11:31:39;99346.31;;;-0.14
67515;BMP280;60646;55.802;37.032;2023-12-04T11:34:08;99351.56;;;-0.14
67515;BMP280;60646;55.802;37.032;2023-12-04T11:36:35;99347.13;;;-0.17
67515;BMP280;60646;55.802;37.032;2023-12-04T11:39:01;99356.06;;;-0.15
67515;BMP280;60646;55.802;37.032;2023-12-04T11:41:29;99350.09;;;-0.15
67515;BMP280;60646;55.802;37.032;2023-12-04T11:43:56;99362.47;;;-0.16
67515;BMP280;60646;55.802;37.032;2023-12-04T11:46:24;99369.59;;;-0.16
67515;BMP280;60646;55.802;37.032;2023-12-04T11:48:54;99350.91;;;-0.18
67515;BMP280;60646;55.802;37.032;2023-12-04T11:54:09;99387.75;;;-0.06
67515;BMP280;60646;55.802;37.032;2023-12-04T11:56:35;99390.28;;;-0.02
67515;BMP280;60646;55.802;37.032;2023-12-04T11:59:06;99374.19;;;-0.20
67515;BMP280;60646;55.802;37.032;2023-12-04T12:01:36;99403.31;;;0.02
67515;BMP280;60646;55.802;37.032;2023-12-04T12:04:06;99381.66;;;-0.19
67515;BMP280;60646;55.802;37.032;2023-12-04T12:06:33;99372.69;;;-0.21
67515;BMP280;60646;55.802;37.032;2023-12-04T12:08:59;99367.63;;;-0.28
67515;BMP280;60646;55.802;37.032;2023-12-04T12:11:25;99420.94;;;0.01
67515;BMP280;60646;55.802;37.032;2023-12-04T12:13:55;99402.16;;;-0.14
67515;BMP280;60646;55.802;37.032;2023-12-04T12:16:40;99395.84;;;-0.16
67515;BMP280;60646;55.802;37.032;2023-12-04T12:19:06;99382.94;;;-0.27
67515;BMP280;60646;55.802;37.032;2023-12-04T12:21:32;99395.84;;;-0.16
67515;BMP280;60646;55.802;37.032;2023-12-04T12:23:58;99400.69;;;-0.15
67515;BMP280;60646;55.802;37.032;2023-12-04T12:26:23;99398.94;;;-0.21
67515;BMP280;60646;55.802;37.032;2023-12-04T12:28:49;99412.59;;;-0.10
67515;BMP280;60646;55.802;37.032;2023-12-04T12:31:15;99427.03;;;-0.02
67515;BMP280;60646;55.802;37.032;2023-12-04T12:33:41;99410.63;;;-0.06
67515;BMP280;60646;55.802;37.032;2023-12-04T12:36:08;99414.88;;;-0.12
67515;BMP280;60646;55.802;37.032;2023-12-04T12:38:35;99429.66;;;-0.02
67515;BMP280;60646;55.802;37.032;2023-12-04T12:41:01;99433.09;;;-0.05
67515;BMP280;60646;55.802;37.032;2023-12-04T12:43:27;99411.66;;;-0.20
67515;BMP280;60646;55.802;37.032;2023-12-04T12:45:53;99434.50;;;-0.01
67515;BMP280;60646;55.802;37.032;2023-12-04T12:48:19;99397.81;;;-0.20
67515;BMP280;60646;55.802;37.032;2023-12-04T12:50:48;99399.41;;;-0.26
67515;BMP280;60646;55.802;37.032;2023-12-04T12:53:14;99414.56;;;-0.14
67515;BMP280;60646;55.802;37.032;2023-12-04T12:55:43;99392.78;;;-0.31
67515;BMP280;60646;55.802;37.032;2023-12-04T12:58:10;99409.44;;;-0.21
67515;BMP280;60646;55.802;37.032;2023-12-04T13:00:36;99423.56;;;-0.15
67515;BMP280;60646;55.802;37.032;2023-12-04T13:03:04;99413.28;;;-0.26
67515;BMP280;60646;55.802;37.032;2023-12-04T13:05:30;99405.16;;;-0.31
67515;BMP280;60646;55.802;37.032;2023-12-04T13:07:56;99426.00;;;-0.24
67515;BMP280;60646;55.802;37.032;2023-12-04T13:10:22;99440.13;;;-0.18
67515;BMP280;60646;55.802;37.032;2023-12-04T13:12:50;99433.72;;;-0.17
67515;BMP280;60646;55.802;37.032;2023-12-04T13:15:22;99432.78;;;-0.27
67515;BMP280;60646;55.802;37.032;2023-12-04T13:17:48;99418.59;;;-0.29
67515;BMP280;60646;55.802;37.032;2023-12-04T13:20:13;99456.06;;;-0.09
67515;BMP280;60646;55.802;37.032;2023-12-04T13:22:41;99435.66;;;-0.21
67515;BMP280;60646;55.802;37.032;2023-12-04T13:25:07;99421.69;;;-0.34
67515;BMP280;60646;55.802;37.032;2023-12-04T13:27:38;99461.63;;;-0.07
67515;BMP280;60646;55.802;37.032;2023-12-04T13:30:06;99443.91;;;-0.19
67515;BMP280;60646;55.802;37.032;2023-12-04T13:32:35;99448.78;;;-0.21
67515;BMP280;60646;55.802;37.032;2023-12-04T13:35:02;99440.25;;;-0.25
67515;BMP280;60646;55.802;37.032;2023-12-04T13:37:33;99451.09;;;-0.23
67515;BMP280;60646;55.802;37.032;2023-12-04T13:40:01;99450.75;;;-0.25
67515;BMP280;60646;55.802;37.032;2023-12-04T13:42:32;99458.22;;;-0.24
67515;BMP280;60646;55.802;37.032;2023-12-04T13:45:17;99464.53;;;-0.21
67515;BMP280;60646;55.802;37.032;2023-12-04T13:47:46;99444.09;;;-0.30
67515;BMP280;60646;55.802;37.032;2023-12-04T13:50:12;99464.28;;;-0.27
67515;BMP280;60646;55.802;37.032;2023-12-04T13:52:38;99478.66;;;-0.15
67515;BMP280;60646;55.802;37.032;2023-12-04T13:55:21;99485.72;;;-0.12
67515;BMP280;60646;55.802;37.032;2023-12-04T13:58:00;99457.75;;;-0.38
67515;BMP280;60646;55.802;37.032;2023-12-04T14:00:26;99488.06;;;-0.18
67515;BMP280;60646;55.802;37.032;2023-12-04T14:02:51;99479.28;;;-0.27
67515;BMP280;60646;55.802;37.032;2023-12-04T14:05:30;99462.31;;;-0.43